EWG229 EDDL-EDDH
Flight info
| Callsign | EWG229 |
|---|---|
| Flight time | 0h 39m |
| Altitude | 29000 |
| Route | MEVEL1Z MEVEL DCT MUBZI M105 RIBSO RIBSO7A |
| Aircraft | A320/M-SDE3FGHIRWY/LB1 |
Departure
| Time | 2026-05-05 13:49 |
|---|---|
| Airport | Düsseldorf Airport (EDDL) |
Arrival
| Time | 2026-05-05 14:28 |
|---|---|
| Airport | Hamburg Helmut Schmidt Airport (EDDH) |
| Time | Latitude | Longitude | Altitude | Speed | Heading |
|---|---|---|---|---|---|
| 2026-05-05 13:13 | 51.28208 | 6.76732 | 124 ft | 0 kts | 278° |
| 2026-05-05 13:36 | 51.28208 | 6.76730 | 126 ft | 0 kts | 278° |
| 2026-05-05 13:37 | 51.28206 | 6.76754 | 122 ft | 2 kts | 278° |
| 2026-05-05 13:37 | 51.28204 | 6.76780 | 125 ft | 2 kts | 278° |
| 2026-05-05 13:37 | 51.28201 | 6.76807 | 123 ft | 2 kts | 278° |
| 2026-05-05 13:38 | 51.28199 | 6.76834 | 123 ft | 2 kts | 278° |
| 2026-05-05 13:38 | 51.28197 | 6.76851 | 124 ft | 0 kts | 278° |
| 2026-05-05 13:41 | 51.28211 | 6.76829 | 122 ft | 8 kts | 324° |
| 2026-05-05 13:42 | 51.28265 | 6.76844 | 125 ft | 9 kts | 24° |
| 2026-05-05 13:42 | 51.28334 | 6.76866 | 127 ft | 11 kts | 5° |
| 2026-05-05 13:42 | 51.28404 | 6.76831 | 127 ft | 11 kts | 322° |
| 2026-05-05 13:42 | 51.28458 | 6.76744 | 127 ft | 12 kts | 289° |
| 2026-05-05 13:43 | 51.28417 | 6.76623 | 124 ft | 13 kts | 231° |
| 2026-05-05 13:43 | 51.28366 | 6.76515 | 125 ft | 12 kts | 234° |
| 2026-05-05 13:43 | 51.28317 | 6.76411 | 121 ft | 12 kts | 232° |
| 2026-05-05 13:43 | 51.28272 | 6.76320 | 121 ft | 9 kts | 232° |
| 2026-05-05 13:44 | 51.28242 | 6.76259 | 127 ft | 5 kts | 232° |
| 2026-05-05 13:44 | 51.28225 | 6.76224 | 127 ft | 3 kts | 232° |
| 2026-05-05 13:44 | 51.28203 | 6.76176 | 124 ft | 10 kts | 234° |
| 2026-05-05 13:44 | 51.28156 | 6.76076 | 123 ft | 14 kts | 232° |
| 2026-05-05 13:45 | 51.28085 | 6.75923 | 125 ft | 21 kts | 234° |
| 2026-05-05 13:45 | 51.28010 | 6.75770 | 124 ft | 14 kts | 232° |
| 2026-05-05 13:45 | 51.27955 | 6.75655 | 124 ft | 13 kts | 232° |
| 2026-05-05 13:45 | 51.27898 | 6.75537 | 121 ft | 14 kts | 232° |
| 2026-05-05 13:46 | 51.27849 | 6.75432 | 122 ft | 10 kts | 233° |
| 2026-05-05 13:46 | 51.27833 | 6.75362 | 121 ft | 4 kts | 283° |
| 2026-05-05 13:46 | 51.27842 | 6.75351 | 120 ft | 0 kts | 332° |
| 2026-05-05 13:47 | 51.27851 | 6.75344 | 119 ft | 6 kts | 334° |
| 2026-05-05 13:47 | 51.27902 | 6.75303 | 118 ft | 11 kts | 333° |
| 2026-05-05 13:47 | 51.27983 | 6.75274 | 117 ft | 12 kts | 14° |
| 2026-05-05 13:47 | 51.28017 | 6.75322 | 115 ft | 0 kts | 52° |
| 2026-05-05 13:48 | 51.28076 | 6.75444 | 119 ft | 45 kts | 52° |
| 2026-05-05 13:48 | 51.28412 | 6.76143 | 120 ft | 110 kts | 52° |
| 2026-05-05 13:48 | 51.28978 | 6.77316 | 142 ft | 155 kts | 51° |
| 2026-05-05 13:49 | 51.29647 | 6.78710 | 652 ft | 158 kts | 47° |
| 2026-05-05 13:49 | 51.30328 | 6.80080 | 1367 ft | 156 kts | 49° |
| 2026-05-05 13:49 | 51.31015 | 6.81394 | 2067 ft | 152 kts | 48° |
| 2026-05-05 13:49 | 51.31469 | 6.82295 | 2383 ft | 158 kts | 51° |
| 2026-05-05 13:50 | 51.32161 | 6.83788 | 2577 ft | 179 kts | 53° |
| 2026-05-05 13:50 | 51.32923 | 6.85455 | 2878 ft | 193 kts | 53° |
| 2026-05-05 13:50 | 51.33754 | 6.87287 | 3106 ft | 216 kts | 54° |
| 2026-05-05 13:50 | 51.34724 | 6.89310 | 3418 ft | 242 kts | 43° |
| 2026-05-05 13:51 | 51.36228 | 6.90726 | 3871 ft | 261 kts | 14° |
| 2026-05-05 13:51 | 51.38023 | 6.91271 | 4641 ft | 268 kts | 9° |
| 2026-05-05 13:51 | 51.39894 | 6.91766 | 5455 ft | 274 kts | 9° |
| 2026-05-05 13:51 | 51.41789 | 6.92257 | 6250 ft | 281 kts | 9° |
| 2026-05-05 13:52 | 51.43738 | 6.92765 | 6999 ft | 288 kts | 9° |
| 2026-05-05 13:52 | 51.45730 | 6.93291 | 7803 ft | 292 kts | 9° |
| 2026-05-05 13:52 | 51.48429 | 6.94005 | 8907 ft | 297 kts | 8° |
| 2026-05-05 13:52 | 51.49797 | 6.94169 | 9427 ft | 300 kts | 358° |
| 2026-05-05 13:53 | 51.51872 | 6.93771 | 10153 ft | 306 kts | 349° |
| 2026-05-05 13:53 | 51.54057 | 6.93157 | 10417 ft | 329 kts | 349° |
| 2026-05-05 13:53 | 51.56389 | 6.92500 | 10743 ft | 347 kts | 349° |
| 2026-05-05 13:53 | 51.58798 | 6.91824 | 11369 ft | 354 kts | 349° |
| 2026-05-05 13:54 | 51.61225 | 6.91142 | 12107 ft | 357 kts | 350° |
| 2026-05-05 13:54 | 51.63685 | 6.90454 | 12992 ft | 358 kts | 350° |
| 2026-05-05 13:54 | 51.66168 | 6.89944 | 13785 ft | 360 kts | 359° |
| 2026-05-05 13:54 | 51.68653 | 6.90365 | 14378 ft | 364 kts | 14° |
| 2026-05-05 13:55 | 51.71019 | 6.91820 | 14979 ft | 367 kts | 29° |
| 2026-05-05 13:55 | 51.73098 | 6.94219 | 15566 ft | 370 kts | 45° |
| 2026-05-05 13:55 | 51.74774 | 6.97417 | 16143 ft | 373 kts | 56° |
| 2026-05-05 13:55 | 51.76296 | 7.00773 | 16728 ft | 377 kts | 55° |
| 2026-05-05 13:56 | 51.77866 | 7.04219 | 17288 ft | 381 kts | 55° |
| 2026-05-05 13:56 | 51.79448 | 7.07689 | 17899 ft | 385 kts | 55° |
| 2026-05-05 13:56 | 51.81053 | 7.11213 | 18431 ft | 390 kts | 55° |
| 2026-05-05 13:56 | 51.82648 | 7.14716 | 18955 ft | 392 kts | 54° |
| 2026-05-05 13:57 | 51.84293 | 7.18262 | 19476 ft | 396 kts | 52° |
| 2026-05-05 13:57 | 51.86243 | 7.21461 | 20016 ft | 400 kts | 40° |
| 2026-05-05 13:57 | 51.88519 | 7.24081 | 20566 ft | 404 kts | 33° |
| 2026-05-05 13:57 | 51.90921 | 7.26512 | 21098 ft | 408 kts | 32° |
| 2026-05-05 13:58 | 51.93329 | 7.28963 | 21643 ft | 410 kts | 33° |
| 2026-05-05 13:58 | 51.95721 | 7.31412 | 22144 ft | 414 kts | 33° |
| 2026-05-05 13:58 | 51.98171 | 7.33928 | 22681 ft | 416 kts | 33° |
| 2026-05-05 13:58 | 52.00630 | 7.36464 | 23138 ft | 420 kts | 33° |
| 2026-05-05 13:59 | 52.05607 | 7.41617 | 23967 ft | 427 kts | 33° |
| 2026-05-05 13:59 | 52.08093 | 7.44190 | 24334 ft | 430 kts | 32° |
| 2026-05-05 14:00 | 52.13199 | 7.49457 | 25040 ft | 437 kts | 32° |
| 2026-05-05 14:00 | 52.15769 | 7.52120 | 25381 ft | 440 kts | 32° |
| 2026-05-05 14:00 | 52.18356 | 7.54810 | 25725 ft | 443 kts | 32° |
| 2026-05-05 14:00 | 52.20963 | 7.57521 | 26068 ft | 445 kts | 32° |
| 2026-05-05 14:01 | 52.23578 | 7.60242 | 26413 ft | 448 kts | 32° |
| 2026-05-05 14:01 | 52.26230 | 7.63007 | 26753 ft | 451 kts | 32° |
| 2026-05-05 14:01 | 52.28878 | 7.65777 | 27080 ft | 454 kts | 32° |
| 2026-05-05 14:01 | 52.31523 | 7.68551 | 27342 ft | 459 kts | 32° |
| 2026-05-05 14:02 | 52.34218 | 7.71377 | 27659 ft | 462 kts | 32° |
| 2026-05-05 14:02 | 52.36933 | 7.74227 | 27960 ft | 465 kts | 32° |
| 2026-05-05 14:02 | 52.39665 | 7.77098 | 28262 ft | 467 kts | 32° |
| 2026-05-05 14:02 | 52.42387 | 7.79960 | 28581 ft | 470 kts | 32° |
| 2026-05-05 14:03 | 52.45162 | 7.82878 | 28839 ft | 473 kts | 32° |
| 2026-05-05 14:03 | 52.47929 | 7.85794 | 28897 ft | 473 kts | 32° |
| 2026-05-05 14:03 | 52.53465 | 7.91642 | 28902 ft | 473 kts | 31° |
| 2026-05-05 14:04 | 52.58999 | 7.97518 | 28919 ft | 473 kts | 31° |
| 2026-05-05 14:04 | 52.64530 | 8.03423 | 28913 ft | 473 kts | 31° |
| 2026-05-05 14:05 | 52.70075 | 8.09343 | 28921 ft | 475 kts | 31° |
| 2026-05-05 14:05 | 52.75584 | 8.15240 | 28911 ft | 474 kts | 31° |
| 2026-05-05 14:06 | 52.81119 | 8.21181 | 28911 ft | 474 kts | 31° |
| 2026-05-05 14:06 | 52.86628 | 8.27114 | 28711 ft | 463 kts | 31° |
| 2026-05-05 14:07 | 52.89269 | 8.29967 | 28438 ft | 452 kts | 31° |
| 2026-05-05 14:07 | 52.91881 | 8.32794 | 28165 ft | 446 kts | 31° |
| 2026-05-05 14:07 | 52.94472 | 8.35600 | 27894 ft | 443 kts | 31° |
| 2026-05-05 14:07 | 52.97039 | 8.38387 | 27649 ft | 440 kts | 31° |
| 2026-05-05 14:08 | 52.99576 | 8.41146 | 27385 ft | 438 kts | 31° |
| 2026-05-05 14:08 | 53.02115 | 8.43915 | 27122 ft | 436 kts | 31° |
| 2026-05-05 14:08 | 53.04639 | 8.46670 | 26861 ft | 433 kts | 31° |
| 2026-05-05 14:08 | 53.07160 | 8.49420 | 26601 ft | 431 kts | 31° |
| 2026-05-05 14:09 | 53.09669 | 8.52157 | 26302 ft | 427 kts | 31° |
| 2026-05-05 14:09 | 53.12151 | 8.54869 | 25790 ft | 424 kts | 31° |
| 2026-05-05 14:09 | 53.14611 | 8.57561 | 25294 ft | 421 kts | 31° |
| 2026-05-05 14:09 | 53.17052 | 8.60236 | 24796 ft | 419 kts | 31° |
| 2026-05-05 14:10 | 53.19457 | 8.62874 | 24312 ft | 416 kts | 31° |
| 2026-05-05 14:10 | 53.21886 | 8.65545 | 23818 ft | 414 kts | 31° |
| 2026-05-05 14:10 | 53.24266 | 8.68169 | 23302 ft | 413 kts | 31° |
| 2026-05-05 14:10 | 53.26651 | 8.70803 | 22782 ft | 410 kts | 31° |
| 2026-05-05 14:11 | 53.29017 | 8.73418 | 22303 ft | 406 kts | 31° |
| 2026-05-05 14:11 | 53.31366 | 8.76019 | 21812 ft | 403 kts | 31° |
| 2026-05-05 14:11 | 53.33692 | 8.78600 | 21321 ft | 401 kts | 31° |
| 2026-05-05 14:11 | 53.36004 | 8.81167 | 20827 ft | 398 kts | 31° |
| 2026-05-05 14:12 | 53.38317 | 8.83735 | 20315 ft | 396 kts | 31° |
| 2026-05-05 14:12 | 53.40610 | 8.86283 | 19820 ft | 394 kts | 31° |
| 2026-05-05 14:12 | 53.42893 | 8.88823 | 19318 ft | 393 kts | 31° |
| 2026-05-05 14:12 | 53.45176 | 8.91362 | 18815 ft | 392 kts | 31° |
| 2026-05-05 14:13 | 53.47443 | 8.93888 | 18316 ft | 391 kts | 31° |
| 2026-05-05 14:13 | 53.49711 | 8.96424 | 17777 ft | 390 kts | 31° |
| 2026-05-05 14:13 | 53.51954 | 8.98941 | 17329 ft | 386 kts | 31° |
| 2026-05-05 14:13 | 53.54157 | 9.01421 | 16871 ft | 383 kts | 32° |
| 2026-05-05 14:14 | 53.56340 | 9.03946 | 16396 ft | 380 kts | 33° |
| 2026-05-05 14:14 | 53.58505 | 9.06517 | 15929 ft | 378 kts | 33° |
| 2026-05-05 14:14 | 53.60641 | 9.09094 | 15463 ft | 375 kts | 34° |
| 2026-05-05 14:14 | 53.62756 | 9.11661 | 14996 ft | 373 kts | 34° |
| 2026-05-05 14:15 | 53.64863 | 9.14218 | 14538 ft | 368 kts | 33° |
| 2026-05-05 14:15 | 53.66874 | 9.16651 | 14083 ft | 354 kts | 33° |
| 2026-05-05 14:15 | 53.68865 | 9.19056 | 13624 ft | 350 kts | 33° |
| 2026-05-05 14:15 | 53.70844 | 9.21445 | 13123 ft | 349 kts | 34° |
| 2026-05-05 14:16 | 53.72804 | 9.23809 | 12620 ft | 349 kts | 33° |
| 2026-05-05 14:16 | 53.74777 | 9.26184 | 12128 ft | 348 kts | 33° |
| 2026-05-05 14:16 | 53.76741 | 9.28574 | 11641 ft | 347 kts | 37° |
| 2026-05-05 14:16 | 53.78328 | 9.31624 | 11157 ft | 347 kts | 60° |
| 2026-05-05 14:17 | 53.79064 | 9.35449 | 10699 ft | 346 kts | 85° |
| 2026-05-05 14:17 | 53.78829 | 9.39449 | 10237 ft | 341 kts | 110° |
| 2026-05-05 14:17 | 53.77718 | 9.42922 | 9951 ft | 329 kts | 131° |
| 2026-05-05 14:17 | 53.76053 | 9.45380 | 9915 ft | 308 kts | 154° |
| 2026-05-05 14:18 | 53.74120 | 9.46428 | 9925 ft | 289 kts | 179° |
| 2026-05-05 14:18 | 53.72209 | 9.45950 | 9926 ft | 268 kts | 205° |
| 2026-05-05 14:18 | 53.70659 | 9.44406 | 9927 ft | 251 kts | 214° |
| 2026-05-05 14:18 | 53.69034 | 9.43473 | 9930 ft | 251 kts | 186° |
| 2026-05-05 14:19 | 53.67274 | 9.43674 | 9932 ft | 254 kts | 172° |
| 2026-05-05 14:19 | 53.65564 | 9.44316 | 9681 ft | 256 kts | 168° |
| 2026-05-05 14:19 | 53.63840 | 9.45120 | 9282 ft | 257 kts | 167° |
| 2026-05-05 14:19 | 53.62120 | 9.45941 | 8920 ft | 256 kts | 167° |
| 2026-05-05 14:20 | 53.60405 | 9.46727 | 8586 ft | 254 kts | 167° |
| 2026-05-05 14:20 | 53.58701 | 9.47469 | 8309 ft | 249 kts | 168° |
| 2026-05-05 14:20 | 53.57018 | 9.48169 | 8129 ft | 247 kts | 168° |
| 2026-05-05 14:20 | 53.55348 | 9.48846 | 7950 ft | 247 kts | 168° |
| 2026-05-05 14:21 | 53.53693 | 9.49505 | 7789 ft | 247 kts | 168° |
| 2026-05-05 14:21 | 53.52017 | 9.50113 | 7613 ft | 247 kts | 174° |
| 2026-05-05 14:21 | 53.50315 | 9.50827 | 7441 ft | 255 kts | 154° |
| 2026-05-05 14:21 | 53.49008 | 9.52754 | 7258 ft | 250 kts | 123° |
| 2026-05-05 14:22 | 53.48419 | 9.55445 | 7087 ft | 251 kts | 95° |
| 2026-05-05 14:22 | 53.48449 | 9.58364 | 6912 ft | 244 kts | 85° |
| 2026-05-05 14:22 | 53.48594 | 9.61123 | 6638 ft | 234 kts | 84° |
| 2026-05-05 14:22 | 53.48748 | 9.63851 | 6207 ft | 236 kts | 84° |
| 2026-05-05 14:23 | 53.48903 | 9.66608 | 5801 ft | 240 kts | 84° |
| 2026-05-05 14:23 | 53.49140 | 9.69372 | 5319 ft | 237 kts | 69° |
| 2026-05-05 14:23 | 53.49952 | 9.71765 | 4819 ft | 235 kts | 53° |
| 2026-05-05 14:23 | 53.50949 | 9.73918 | 4302 ft | 230 kts | 49° |
| 2026-05-05 14:24 | 53.51955 | 9.75863 | 3794 ft | 217 kts | 48° |
| 2026-05-05 14:24 | 53.52920 | 9.77744 | 3288 ft | 208 kts | 49° |
| 2026-05-05 14:24 | 53.53832 | 9.79597 | 2766 ft | 201 kts | 50° |
| 2026-05-05 14:24 | 53.54713 | 9.81349 | 2329 ft | 190 kts | 49° |
| 2026-05-05 14:25 | 53.55539 | 9.82982 | 2027 ft | 172 kts | 49° |
| 2026-05-05 14:25 | 53.56302 | 9.84477 | 2034 ft | 169 kts | 49° |
| 2026-05-05 14:25 | 53.57017 | 9.86058 | 1757 ft | 171 kts | 56° |
| 2026-05-05 14:25 | 53.57078 | 9.86209 | 1728 ft | 170 kts | 56° |
| 2026-05-05 14:26 | 53.57196 | 9.86512 | 1694 ft | 165 kts | 57° |
| 2026-05-05 14:26 | 53.57763 | 9.88176 | 1485 ft | 163 kts | 61° |
| 2026-05-05 14:26 | 53.58410 | 9.89645 | 1334 ft | 147 kts | 48° |
| 2026-05-05 14:26 | 53.59055 | 9.90861 | 1082 ft | 136 kts | 49° |
| 2026-05-05 14:27 | 53.59667 | 9.92043 | 837 ft | 130 kts | 48° |
| 2026-05-05 14:27 | 53.60253 | 9.93176 | 643 ft | 128 kts | 50° |
| 2026-05-05 14:27 | 53.60826 | 9.94347 | 474 ft | 130 kts | 50° |
| 2026-05-05 14:27 | 53.61406 | 9.95499 | 321 ft | 132 kts | 52° |
| 2026-05-05 14:28 | 53.61991 | 9.96699 | 90 ft | 130 kts | 52° |
| 2026-05-05 14:28 | 53.62510 | 9.97756 | 40 ft | 96 kts | 50° |
| 2026-05-05 14:28 | 53.62827 | 9.98396 | 45 ft | 51 kts | 50° |
| 2026-05-05 14:28 | 53.63007 | 9.98761 | 43 ft | 31 kts | 50° |
| 2026-05-05 14:29 | 53.63084 | 9.99000 | 42 ft | 21 kts | 76° |
| 2026-05-05 14:29 | 53.63089 | 9.99190 | 44 ft | 4 kts | 95° |
| 2026-05-05 14:30 | 53.63089 | 9.99195 | 44 ft | 3 kts | 95° |
| 2026-05-05 14:30 | 53.63087 | 9.99329 | 45 ft | 14 kts | 83° |
| 2026-05-05 14:31 | 53.63130 | 9.99479 | 45 ft | 15 kts | 57° |
| 2026-05-05 14:31 | 53.63200 | 9.99626 | 44 ft | 15 kts | 50° |
| 2026-05-05 14:31 | 53.63209 | 9.99643 | 44 ft | 7 kts | 50° |
| 2026-05-05 14:31 | 53.63267 | 9.99748 | 45 ft | 14 kts | 44° |
| 2026-05-05 14:32 | 53.63307 | 9.99822 | 45 ft | 5 kts | 49° |
| 2026-05-05 14:32 | 53.63336 | 9.99877 | 45 ft | 8 kts | 49° |
| 2026-05-05 14:32 | 53.63385 | 9.99979 | 45 ft | 13 kts | 50° |
| 2026-05-05 14:32 | 53.63441 | 10.00103 | 46 ft | 13 kts | 65° |
| 2026-05-05 14:33 | 53.63448 | 10.00257 | 46 ft | 9 kts | 85° |
| 2026-05-05 14:33 | 53.63451 | 10.00312 | 46 ft | 1 kts | 86° |
| 2026-05-05 14:33 | 53.63451 | 10.00330 | 46 ft | 5 kts | 86° |
| 2026-05-05 14:33 | 53.63452 | 10.00337 | 46 ft | 0 kts | 86° |